createdAt,value
2023-02-26T00:01:27.450Z,45.48
2023-02-26T00:03:56.467Z,45.55
2023-02-26T00:06:24.935Z,44.89
2023-02-26T00:08:51.933Z,44.31
2023-02-26T00:11:18.755Z,44.63
2023-02-26T00:13:46.293Z,44.46
2023-02-26T00:16:28.842Z,44.11
2023-02-26T00:18:57.075Z,44.05
2023-02-26T00:21:24.999Z,43.98
2023-02-26T00:23:52.579Z,43.61
2023-02-26T00:26:20.113Z,43.49
2023-02-26T00:28:47.291Z,43.28
2023-02-26T00:31:18.253Z,43.35
2023-02-26T00:33:45.343Z,43.49
2023-02-26T00:36:32.368Z,43.79
2023-02-26T00:39:23.136Z,43.31
2023-02-26T00:41:50.197Z,43.54
2023-02-26T00:44:17.697Z,43.63
2023-02-26T00:46:57.227Z,43.25
2023-02-26T00:49:24.238Z,43.01
2023-02-26T00:52:02.670Z,43.35
2023-02-26T00:54:30.390Z,43.02
2023-02-26T00:56:58.219Z,42.79
2023-02-26T00:59:25.691Z,43.06
2023-02-26T01:01:53.132Z,42.92
2023-02-26T01:04:23.452Z,43.14
2023-02-26T01:06:55.827Z,43.09
2023-02-26T01:09:25.872Z,42.71
2023-02-26T01:11:57.227Z,42.74
2023-02-26T01:14:24.872Z,42.94
2023-02-26T01:16:54.009Z,43.16
2023-02-26T01:19:30.570Z,43.18
2023-02-26T01:22:04.531Z,42.88
2023-02-26T01:24:31.521Z,42.90
2023-02-26T01:26:58.577Z,43.00
2023-02-26T01:29:26.088Z,42.79
2023-02-26T01:31:55.249Z,43.46
2023-02-26T01:34:37.005Z,43.41
2023-02-26T01:37:22.647Z,43.09
2023-02-26T01:40:15.793Z,43.35
2023-02-26T01:42:45.136Z,43.53
2023-02-26T01:45:21.839Z,42.94
2023-02-26T01:47:52.266Z,43.10
2023-02-26T01:50:29.836Z,43.19
2023-02-26T01:53:24.442Z,43.14
2023-02-26T01:56:00.706Z,43.37
2023-02-26T01:58:31.446Z,43.15
2023-02-26T02:00:58.265Z,43.37
2023-02-26T02:03:26.464Z,43.27
2023-02-26T02:05:59.038Z,43.18
2023-02-26T02:08:26.072Z,43.46
2023-02-26T02:10:52.964Z,43.40
2023-02-26T02:13:22.619Z,43.49
2023-02-26T02:16:17.131Z,43.29
2023-02-26T02:19:02.649Z,43.30
2023-02-26T02:21:50.886Z,43.53
2023-02-26T02:24:34.168Z,43.52
2023-02-26T02:27:24.787Z,43.76
2023-02-26T02:30:00.279Z,43.63
2023-02-26T02:32:36.444Z,43.41
2023-02-26T02:35:23.972Z,43.36
2023-02-26T02:37:58.814Z,43.53
2023-02-26T02:40:32.618Z,43.47
2023-02-26T02:43:06.784Z,43.57
2023-02-26T02:45:50.517Z,43.70
2023-02-26T02:48:36.328Z,43.60
2023-02-26T02:51:22.721Z,43.35
2023-02-26T02:53:53.544Z,43.45
2023-02-26T02:56:41.477Z,43.47
2023-02-26T02:59:24.270Z,43.75
2023-02-26T03:01:58.713Z,43.66
2023-02-26T03:04:25.803Z,43.60
2023-02-26T03:06:52.541Z,43.91
2023-02-26T03:09:19.382Z,43.49
2023-02-26T03:11:46.119Z,43.54
2023-02-26T03:14:14.612Z,43.33
2023-02-26T03:16:49.538Z,43.42
2023-02-26T03:19:29.121Z,43.48
2023-02-26T03:22:19.099Z,43.91
2023-02-26T03:25:19.221Z,43.99
2023-02-26T03:27:49.485Z,43.93
2023-02-26T03:30:40.146Z,43.75
2023-02-26T03:33:29.796Z,44.08
2023-02-26T03:36:10.471Z,43.88
2023-02-26T03:39:06.975Z,44.08
2023-02-26T03:41:43.388Z,44.30
2023-02-26T03:44:19.881Z,44.12
2023-02-26T03:46:51.746Z,44.36
2023-02-26T03:49:26.441Z,44.12
2023-02-26T03:51:53.852Z,44.44
2023-02-26T03:54:45.633Z,44.45
2023-02-26T03:57:31.153Z,44.15
2023-02-26T04:00:13.302Z,44.31
2023-02-26T04:02:50.606Z,44.64
2023-02-26T04:05:20.735Z,44.82
2023-02-26T04:07:49.224Z,44.67
2023-02-26T04:10:22.390Z,44.66
2023-02-26T04:12:49.223Z,44.65
2023-02-26T04:15:16.085Z,45.19
2023-02-26T04:17:43.013Z,45.34
2023-02-26T04:20:10.950Z,45.25
2023-02-26T04:22:38.479Z,44.80
2023-02-26T04:25:05.725Z,45.12
2023-02-26T04:27:32.609Z,44.85
2023-02-26T04:30:00.057Z,45.14
2023-02-26T04:32:27.134Z,45.22
2023-02-26T04:34:54.015Z,45.42
2023-02-26T04:37:20.972Z,45.47
2023-02-26T04:39:48.324Z,45.53
2023-02-26T04:42:15.116Z,45.68
2023-02-26T04:44:41.861Z,45.39
2023-02-26T04:47:08.753Z,45.58
2023-02-26T04:49:37.215Z,45.24
2023-02-26T04:52:04.237Z,45.62
2023-02-26T04:54:31.478Z,45.58
2023-02-26T04:56:58.397Z,45.55
2023-02-26T04:59:25.172Z,45.35
2023-02-26T05:01:52.468Z,45.18
2023-02-26T05:04:19.297Z,45.38
2023-02-26T05:06:50.289Z,45.57
2023-02-26T05:09:17.170Z,45.19
2023-02-26T05:11:44.438Z,45.50
2023-02-26T05:14:11.197Z,45.52
2023-02-26T05:16:39.427Z,45.34
2023-02-26T05:19:06.835Z,45.44
2023-02-26T05:21:33.913Z,45.43
2023-02-26T05:24:00.783Z,45.35
2023-02-26T05:26:27.737Z,45.04
2023-02-26T05:28:55.622Z,45.10
2023-02-26T05:31:22.464Z,44.99
2023-02-26T05:33:49.360Z,45.33
2023-02-26T05:36:16.044Z,45.19
2023-02-26T05:38:42.837Z,45.31
2023-02-26T05:41:09.522Z,45.50
2023-02-26T05:43:37.319Z,45.59
2023-02-26T05:46:04.058Z,45.39
2023-02-26T05:48:30.956Z,45.81
2023-02-26T05:50:57.608Z,45.64
2023-02-26T05:53:24.370Z,45.51
2023-02-26T05:55:53.429Z,45.36
2023-02-26T05:58:20.289Z,46.00
2023-02-26T06:00:47.116Z,45.97
2023-02-26T06:03:14.083Z,45.77
2023-02-26T06:05:40.862Z,45.80
2023-02-26T06:08:07.728Z,45.95
2023-02-26T06:10:34.586Z,45.91
2023-02-26T06:13:01.393Z,46.11
2023-02-26T06:15:28.121Z,46.22
2023-02-26T06:17:54.975Z,46.38
2023-02-26T06:20:21.688Z,46.64
2023-02-26T06:22:48.510Z,46.24
2023-02-26T06:25:15.400Z,46.24
2023-02-26T06:27:42.324Z,46.56
2023-02-26T06:30:09.917Z,46.19
2023-02-26T06:32:36.906Z,46.21
2023-02-26T06:35:04.543Z,46.22
2023-02-26T06:37:31.377Z,46.38
2023-02-26T06:39:58.025Z,47.18
2023-02-26T06:42:24.766Z,48.58
2023-02-26T06:44:51.622Z,49.57
2023-02-26T06:47:18.504Z,49.99
2023-02-26T06:49:45.160Z,50.44
2023-02-26T06:52:11.933Z,50.41
2023-02-26T06:54:38.629Z,50.46
2023-02-26T06:57:05.442Z,50.78
2023-02-26T06:59:32.233Z,50.79
2023-02-26T07:01:59.058Z,51.08
2023-02-26T07:04:25.898Z,51.38
2023-02-26T07:06:55.611Z,51.51
2023-02-26T07:09:28.435Z,51.16
2023-02-26T07:11:55.329Z,51.41
2023-02-26T07:14:47.160Z,51.19
2023-02-26T07:17:20.853Z,51.15
2023-02-26T07:19:49.658Z,51.46
2023-02-26T07:22:17.245Z,51.24
2023-02-26T07:24:44.066Z,51.36
2023-02-26T07:27:10.822Z,51.40
2023-02-26T07:29:37.794Z,51.08
2023-02-26T07:32:04.952Z,50.49
2023-02-26T07:34:32.297Z,50.75
2023-02-26T07:36:59.272Z,50.76
2023-02-26T07:39:27.338Z,50.50
2023-02-26T07:41:54.832Z,50.30
2023-02-26T07:44:22.150Z,50.07
2023-02-26T07:46:56.906Z,49.92
2023-02-26T07:49:25.856Z,50.27
2023-02-26T07:51:54.954Z,49.89
2023-02-26T07:54:24.913Z,49.75
2023-02-26T07:56:52.311Z,49.82
2023-02-26T07:59:19.251Z,49.65
2023-02-26T08:01:47.934Z,49.54
2023-02-26T08:04:15.121Z,48.80
2023-02-26T08:06:41.890Z,48.85
2023-02-26T08:09:08.632Z,48.43
2023-02-26T08:11:39.771Z,48.47
2023-02-26T08:14:08.116Z,48.22
2023-02-26T08:16:34.817Z,48.12
2023-02-26T08:19:01.628Z,48.53
2023-02-26T08:21:28.408Z,48.52
2023-02-26T08:23:55.007Z,48.66
2023-02-26T08:26:21.609Z,48.33
2023-02-26T08:28:48.577Z,48.31
2023-02-26T08:31:15.731Z,47.24
2023-02-26T08:33:44.361Z,47.96
2023-02-26T08:36:12.156Z,48.23
2023-02-26T08:38:39.675Z,47.37
2023-02-26T08:41:06.600Z,47.39
2023-02-26T08:43:33.461Z,47.71
2023-02-26T08:46:00.637Z,47.76
2023-02-26T08:48:27.623Z,48.25
2023-02-26T08:50:54.432Z,48.32
2023-02-26T08:53:21.279Z,48.01
2023-02-26T08:55:49.754Z,47.54
2023-02-26T08:58:17.202Z,48.05
2023-02-26T09:00:44.461Z,48.17
2023-02-26T09:03:11.485Z,48.46
2023-02-26T09:05:38.798Z,48.32
2023-02-26T09:08:05.645Z,48.41
2023-02-26T09:10:32.408Z,48.55
2023-02-26T09:12:59.390Z,48.12
2023-02-26T09:15:26.376Z,48.52
2023-02-26T09:17:54.890Z,48.65
2023-02-26T09:20:21.655Z,47.45
2023-02-26T09:22:48.405Z,47.87
2023-02-26T09:25:15.365Z,47.96
2023-02-26T09:27:42.189Z,47.47
2023-02-26T09:30:10.033Z,47.73
2023-02-26T09:32:36.917Z,47.57
2023-02-26T09:35:05.581Z,46.96
2023-02-26T09:37:32.731Z,47.32
2023-02-26T09:39:59.522Z,47.17
2023-02-26T09:42:43.591Z,47.28
2023-02-26T09:45:19.147Z,47.22
2023-02-26T09:47:51.860Z,46.18
2023-02-26T09:50:25.848Z,46.44
2023-02-26T09:52:56.209Z,45.81
2023-02-26T09:55:35.602Z,45.35
2023-02-26T09:58:05.220Z,45.59
2023-02-26T10:00:41.006Z,45.42
2023-02-26T10:03:07.747Z,45.46
2023-02-26T10:05:50.422Z,45.63
2023-02-26T10:08:18.624Z,45.67
2023-02-26T10:11:15.296Z,44.84
2023-02-26T10:13:58.509Z,44.81
2023-02-26T10:16:28.794Z,44.29
2023-02-26T10:19:01.100Z,44.79
2023-02-26T10:21:37.244Z,45.83
2023-02-26T10:24:11.578Z,46.33
2023-02-26T10:26:55.779Z,46.48
2023-02-26T10:29:33.045Z,47.05
2023-02-26T10:32:41.977Z,48.93
2023-02-26T10:35:15.030Z,49.18
2023-02-26T10:37:59.084Z,47.18
2023-02-26T10:40:44.635Z,45.91
2023-02-26T10:43:27.267Z,46.46
2023-02-26T10:46:19.325Z,45.92
2023-02-26T10:49:19.029Z,45.77
2023-02-26T10:51:47.189Z,45.00
2023-02-26T10:54:42.364Z,44.35
2023-02-26T10:57:18.998Z,45.21
2023-02-26T10:59:45.824Z,44.65
2023-02-26T11:02:43.721Z,44.84
2023-02-26T11:05:20.779Z,43.93
2023-02-26T11:07:50.596Z,44.58
2023-02-26T11:10:22.283Z,44.83
2023-02-26T11:12:49.205Z,43.39
2023-02-26T11:15:21.109Z,42.97
2023-02-26T11:17:49.104Z,43.13
2023-02-26T11:20:38.323Z,43.18
2023-02-26T11:23:07.933Z,42.50
2023-02-26T11:25:36.184Z,42.96
2023-02-26T11:28:06.701Z,42.21
2023-02-26T11:30:37.806Z,42.19
2023-02-26T11:33:14.295Z,42.07
2023-02-26T11:35:41.221Z,42.43
2023-02-26T11:38:12.943Z,42.75
2023-02-26T11:40:42.947Z,42.54
2023-02-26T11:43:18.416Z,42.60
2023-02-26T11:45:49.209Z,42.91
2023-02-26T11:48:23.904Z,42.09
2023-02-26T11:50:54.128Z,41.33
2023-02-26T11:53:33.238Z,42.07
2023-02-26T11:56:09.146Z,42.62
2023-02-26T11:58:38.100Z,43.51
2023-02-26T12:01:07.747Z,44.74
2023-02-26T12:03:40.199Z,45.39
2023-02-26T12:06:08.275Z,45.45
2023-02-26T12:08:38.585Z,44.81
2023-02-26T12:11:13.713Z,44.75
2023-02-26T12:14:05.508Z,44.48
2023-02-26T12:17:12.349Z,43.42
2023-02-26T12:19:57.880Z,42.57
2023-02-26T12:22:47.139Z,42.52
2023-02-26T12:25:32.119Z,42.83
2023-02-26T12:28:26.952Z,42.77
2023-02-26T12:31:29.430Z,45.44
2023-02-26T12:34:08.714Z,46.11
2023-02-26T12:36:49.849Z,46.42
2023-02-26T12:39:35.460Z,47.11
2023-02-26T12:42:44.595Z,46.97
2023-02-26T12:45:11.280Z,47.39
2023-02-26T12:47:48.381Z,45.46
2023-02-26T12:50:44.548Z,45.71
2023-02-26T12:53:29.871Z,46.52
2023-02-26T12:56:02.334Z,46.81
2023-02-26T12:58:37.918Z,46.57
2023-02-26T13:01:08.223Z,46.45
2023-02-26T13:03:43.502Z,45.78
2023-02-26T13:06:22.338Z,45.60
2023-02-26T13:08:57.848Z,45.69
2023-02-26T13:11:24.812Z,45.97
2023-02-26T13:13:51.564Z,45.29
2023-02-26T13:16:18.827Z,45.73
2023-02-26T13:18:51.574Z,45.77
2023-02-26T13:21:20.738Z,46.02
2023-02-26T13:23:50.389Z,45.93
2023-02-26T13:26:16.978Z,46.31
2023-02-26T13:29:02.381Z,46.67
2023-02-26T13:31:38.341Z,45.63
2023-02-26T13:34:06.420Z,45.81
2023-02-26T13:36:35.223Z,45.17
2023-02-26T13:39:04.970Z,44.91
2023-02-26T13:41:40.477Z,45.10
2023-02-26T13:44:10.421Z,44.81
2023-02-26T13:46:59.864Z,45.73
2023-02-26T13:49:31.556Z,45.84
2023-02-26T13:51:58.134Z,46.14
2023-02-26T13:54:27.369Z,46.47
2023-02-26T13:56:55.574Z,45.87
2023-02-26T13:59:28.414Z,46.02
2023-02-26T14:02:01.230Z,46.44
2023-02-26T14:04:32.330Z,45.72
2023-02-26T14:07:12.235Z,45.21
2023-02-26T14:09:55.155Z,45.96
2023-02-26T14:12:25.001Z,46.21
2023-02-26T14:15:00.670Z,46.28
2023-02-26T14:17:48.319Z,46.71
2023-02-26T14:20:21.174Z,46.83
2023-02-26T14:22:52.794Z,47.67
2023-02-26T14:25:40.279Z,47.37
2023-02-26T14:28:25.609Z,47.55
2023-02-26T14:30:59.995Z,47.60
2023-02-26T14:33:30.937Z,48.63
2023-02-26T14:35:57.774Z,49.76
2023-02-26T14:38:27.615Z,50.15
2023-02-26T14:40:58.306Z,50.28
2023-02-26T14:43:35.039Z,50.51
2023-02-26T14:46:02.743Z,50.91
2023-02-26T14:48:30.304Z,51.16
2023-02-26T14:51:18.477Z,51.06
2023-02-26T14:54:03.815Z,50.73
2023-02-26T14:57:02.965Z,51.21
2023-02-26T14:59:59.286Z,50.47
2023-02-26T15:02:29.430Z,50.62
2023-02-26T15:04:59.029Z,50.07
2023-02-26T15:07:38.398Z,50.25
2023-02-26T15:10:11.205Z,49.87
2023-02-26T15:12:59.457Z,49.70
2023-02-26T15:15:39.424Z,48.95
2023-02-26T15:18:47.831Z,49.27
2023-02-26T15:21:20.269Z,49.78
2023-02-26T15:23:48.135Z,49.66
2023-02-26T15:26:25.017Z,49.34
2023-02-26T15:28:52.187Z,48.87
2023-02-26T15:31:20.378Z,49.53
2023-02-26T15:33:50.131Z,49.44
2023-02-26T15:36:18.800Z,49.66
2023-02-26T15:38:55.640Z,49.57
2023-02-26T15:41:23.254Z,48.74
2023-02-26T15:43:50.979Z,48.83
2023-02-26T15:46:17.932Z,48.57
2023-02-26T15:48:44.825Z,49.43
2023-02-26T15:51:12.644Z,48.55
2023-02-26T15:53:52.069Z,48.68
2023-02-26T15:56:22.078Z,48.11
2023-02-26T15:59:01.899Z,49.15
2023-02-26T16:01:29.584Z,49.28
2023-02-26T16:04:01.010Z,50.12
2023-02-26T16:06:29.118Z,50.12
2023-02-26T16:08:55.789Z,50.32
2023-02-26T16:11:22.427Z,50.97
2023-02-26T16:13:49.964Z,51.35
2023-02-26T16:16:18.811Z,51.04
2023-02-26T16:18:45.546Z,51.54
2023-02-26T16:21:15.249Z,51.22
2023-02-26T16:23:46.788Z,51.11
2023-02-26T16:26:20.022Z,50.77
2023-02-26T16:28:47.106Z,50.59
2023-02-26T16:31:19.007Z,50.48
2023-02-26T16:33:58.070Z,51.03
2023-02-26T16:36:26.574Z,50.38
2023-02-26T16:38:58.553Z,50.61
2023-02-26T16:41:26.525Z,50.37
2023-02-26T16:43:53.321Z,50.72
2023-02-26T16:46:22.665Z,50.73
2023-02-26T16:48:53.420Z,50.44
2023-02-26T16:51:24.879Z,50.58
2023-02-26T16:53:58.331Z,50.68
2023-02-26T16:56:27.249Z,50.14
2023-02-26T16:59:24.582Z,50.17
2023-02-26T17:01:55.694Z,50.85
2023-02-26T17:04:26.832Z,50.00
2023-02-26T17:06:53.857Z,50.76
2023-02-26T17:09:48.350Z,50.61
2023-02-26T17:12:18.215Z,50.08
2023-02-26T17:14:52.489Z,50.25
2023-02-26T17:17:19.272Z,50.10
2023-02-26T17:19:46.012Z,50.05
2023-02-26T17:22:15.395Z,49.93
2023-02-26T17:24:48.458Z,50.09
2023-02-26T17:27:18.005Z,49.98
2023-02-26T17:29:45.926Z,50.27
2023-02-26T17:32:27.467Z,50.48
2023-02-26T17:34:54.601Z,50.38
2023-02-26T17:37:22.902Z,51.35
2023-02-26T17:39:49.756Z,50.89
2023-02-26T17:42:19.943Z,50.93
2023-02-26T17:44:46.957Z,50.70
2023-02-26T17:47:20.022Z,50.20
2023-02-26T17:49:47.314Z,50.60
2023-02-26T17:52:14.829Z,50.58
2023-02-26T17:54:41.853Z,50.68
2023-02-26T17:57:14.829Z,50.46
2023-02-26T17:59:41.662Z,50.71
2023-02-26T18:02:17.737Z,50.03
2023-02-26T18:04:45.324Z,50.75
2023-02-26T18:07:16.501Z,50.27
2023-02-26T18:09:44.653Z,50.45
2023-02-26T18:12:16.073Z,50.65
2023-02-26T18:14:43.578Z,50.35
2023-02-26T18:17:14.579Z,50.06
2023-02-26T18:19:42.505Z,50.48
2023-02-26T18:22:20.220Z,49.34
2023-02-26T18:24:47.108Z,50.24
2023-02-26T18:27:19.630Z,50.36
2023-02-26T18:29:46.626Z,50.26
2023-02-26T18:32:19.182Z,50.50
2023-02-26T18:34:46.081Z,50.10
2023-02-26T18:37:15.551Z,49.10
2023-02-26T18:39:43.088Z,49.29
2023-02-26T18:42:28.459Z,49.25
2023-02-26T18:44:55.685Z,48.98
2023-02-26T18:47:22.869Z,48.77
2023-02-26T19:48:32.679Z,47.74
2023-02-26T19:51:03.379Z,47.75
2023-02-26T19:53:31.410Z,48.40
2023-02-26T19:55:58.102Z,48.67
2023-02-26T19:58:26.092Z,48.30
2023-02-26T20:00:53.652Z,48.61
2023-02-26T20:03:20.710Z,48.59
2023-02-26T20:05:51.743Z,48.52
2023-02-26T20:08:20.692Z,48.32
2023-02-26T20:10:50.864Z,48.48
2023-02-26T20:13:18.346Z,48.16
2023-02-26T20:15:45.574Z,47.80
2023-02-26T20:18:12.528Z,48.11
2023-02-26T20:20:39.611Z,48.23
2023-02-26T20:23:10.843Z,48.36
2023-02-26T20:25:38.752Z,48.05
2023-02-26T20:28:11.609Z,48.41
2023-02-26T20:30:39.388Z,48.77
2023-02-26T20:33:06.663Z,48.73
2023-02-26T20:35:33.874Z,48.79
2023-02-26T20:38:00.723Z,48.94
2023-02-26T20:40:27.585Z,48.64
2023-02-26T20:42:57.755Z,48.85
2023-02-26T20:45:24.711Z,48.96
2023-02-26T20:47:51.579Z,49.16
2023-02-26T20:50:18.442Z,49.26
2023-02-26T20:52:46.106Z,49.54
2023-02-26T20:55:14.230Z,49.09
2023-02-26T20:57:41.811Z,48.79
2023-02-26T21:00:14.194Z,48.98
2023-02-26T21:02:43.115Z,48.98
2023-02-26T21:05:11.468Z,48.96
2023-02-26T21:07:42.632Z,49.19
2023-02-26T21:10:14.125Z,49.25
2023-02-26T21:12:41.581Z,49.36
2023-02-26T21:15:12.834Z,49.18
2023-02-26T21:17:41.397Z,49.20
2023-02-26T21:20:12.126Z,49.43
2023-02-26T21:22:39.485Z,49.28
2023-02-26T21:25:07.739Z,49.33
2023-02-26T21:27:35.510Z,49.48
2023-02-26T21:30:03.301Z,49.88
2023-02-26T21:32:30.376Z,49.69
2023-02-26T21:34:59.810Z,49.57
2023-02-26T21:37:27.943Z,49.25
2023-02-26T21:39:54.990Z,49.23
2023-02-26T21:42:22.627Z,49.49
2023-02-26T21:44:49.816Z,49.31
2023-02-26T21:47:17.501Z,49.68
2023-02-26T21:49:44.657Z,49.01
2023-02-26T21:52:11.834Z,49.29
2023-02-26T21:54:38.885Z,49.41
2023-02-26T21:57:05.894Z,49.29
2023-02-26T21:59:33.051Z,49.43
2023-02-26T22:01:59.958Z,49.38
2023-02-26T22:04:27.128Z,49.00
2023-02-26T22:06:54.198Z,49.18
2023-02-26T22:09:21.457Z,49.19
2023-02-26T22:11:49.573Z,49.64
2023-02-26T22:14:17.323Z,49.43
2023-02-26T22:16:44.196Z,49.49
2023-02-26T22:19:11.157Z,49.87
2023-02-26T22:21:37.936Z,49.28
2023-02-26T22:24:05.684Z,49.50
2023-02-26T22:26:32.490Z,49.63
2023-02-26T22:29:00.932Z,49.95
2023-02-26T22:31:29.348Z,49.82
2023-02-26T22:33:57.455Z,49.83
2023-02-26T22:36:25.837Z,50.19
2023-02-26T22:38:53.047Z,50.14
2023-02-26T22:41:19.825Z,50.26
2023-02-26T22:43:46.639Z,50.13
2023-02-26T22:46:13.549Z,50.84
2023-02-26T22:48:40.359Z,50.90
2023-02-26T22:51:07.295Z,50.39
2023-02-26T22:53:34.008Z,50.62
2023-02-26T22:56:00.858Z,50.92
2023-02-26T22:58:27.731Z,50.54
2023-02-26T23:01:02.655Z,50.58
2023-02-26T23:03:29.705Z,50.91
2023-02-26T23:05:57.258Z,50.89
2023-02-26T23:08:26.025Z,51.59
2023-02-26T23:10:57.282Z,51.46
2023-02-26T23:13:24.929Z,51.27
2023-02-26T23:15:52.105Z,51.18
2023-02-26T23:18:19.374Z,51.06
2023-02-26T23:20:48.964Z,50.94
2023-02-26T23:23:16.414Z,51.31
2023-02-26T23:25:43.774Z,51.63
2023-02-26T23:28:11.871Z,51.30
2023-02-26T23:30:38.993Z,51.86
2023-02-26T23:33:07.318Z,52.14
2023-02-26T23:35:35.288Z,52.07
2023-02-26T23:38:02.697Z,51.90
2023-02-26T23:40:29.804Z,52.20
2023-02-26T23:42:56.832Z,52.45
2023-02-26T23:45:24.175Z,52.22
2023-02-26T23:47:51.428Z,52.03
2023-02-26T23:50:18.443Z,52.30
2023-02-26T23:52:45.308Z,52.41
2023-02-26T23:55:12.576Z,52.34
2023-02-26T23:57:39.360Z,52.53
